createdAt,value
2019-01-27T00:01:36.462Z,1.70
2019-01-27T00:04:03.839Z,1.50
2019-01-27T00:06:30.436Z,1.50
2019-01-27T00:08:57.043Z,1.50
2019-01-27T00:11:23.810Z,1.40
2019-01-27T00:13:50.981Z,1.60
2019-01-27T00:16:17.570Z,1.67
2019-01-27T00:18:44.204Z,1.40
2019-01-27T00:21:10.821Z,1.70
2019-01-27T00:23:37.465Z,1.50
2019-01-27T00:26:04.200Z,1.50
2019-01-27T00:28:30.866Z,1.80
2019-01-27T00:30:57.587Z,1.40
2019-01-27T00:33:24.343Z,1.40
2019-01-27T00:35:50.876Z,1.47
2019-01-27T00:38:17.529Z,1.50
2019-01-27T00:43:38.535Z,1.30
2019-01-27T00:46:05.659Z,1.50
2019-01-27T00:48:32.171Z,1.37
2019-01-27T00:50:58.947Z,1.53
2019-01-27T00:53:25.577Z,1.40
2019-01-27T00:55:52.102Z,1.30
2019-01-27T00:58:18.651Z,1.40
2019-01-27T01:00:45.190Z,1.30
2019-01-27T01:03:11.728Z,1.30
2019-01-27T01:05:38.360Z,1.30
2019-01-27T01:08:05.820Z,1.20
2019-01-27T01:10:32.472Z,1.10
2019-01-27T01:12:58.999Z,1.23
2019-01-27T01:15:25.643Z,1.40
2019-01-27T01:17:52.127Z,1.10
2019-01-27T01:20:21.130Z,1.00
2019-01-27T01:22:49.821Z,1.20
2019-01-27T01:25:22.146Z,2.57
2019-01-27T01:27:49.882Z,1.30
2019-01-27T01:30:20.666Z,1.50
2019-01-27T01:32:47.346Z,1.30
2019-01-27T01:35:14.150Z,1.10
2019-01-27T01:37:40.956Z,1.27
2019-01-27T01:40:12.767Z,1.00
2019-01-27T01:42:39.367Z,1.20
2019-01-27T01:45:25.671Z,1.40
2019-01-27T01:47:52.422Z,1.10
2019-01-27T01:50:18.919Z,1.10
2019-01-27T01:52:45.621Z,1.30
2019-01-27T01:55:14.512Z,1.20
2019-01-27T01:57:41.346Z,1.10
2019-01-27T02:00:17.627Z,1.10
2019-01-27T02:02:44.280Z,1.10
2019-01-27T02:05:13.691Z,1.23
2019-01-27T02:07:40.186Z,1.03
2019-01-27T02:10:11.176Z,1.07
2019-01-27T02:12:37.805Z,1.20
2019-01-27T02:15:27.589Z,1.03
2019-01-27T02:17:53.987Z,1.20
2019-01-27T02:20:20.282Z,1.50
2019-01-27T02:22:46.826Z,1.03
2019-01-27T02:25:13.305Z,1.17
2019-01-27T02:27:39.720Z,1.00
2019-01-27T02:30:10.471Z,1.10
2019-01-27T02:32:37.177Z,1.17
2019-01-27T02:35:05.590Z,1.10
2019-01-27T02:37:31.991Z,1.00
2019-01-27T02:39:58.543Z,1.00
2019-01-27T02:42:24.955Z,0.90
2019-01-27T02:44:51.588Z,0.90
2019-01-27T02:47:18.068Z,0.93
2019-01-27T02:49:44.497Z,1.00
2019-01-27T02:52:11.015Z,0.90
2019-01-27T02:54:37.442Z,0.87
2019-01-27T02:57:04.009Z,0.97
2019-01-27T02:59:30.530Z,0.80
2019-01-27T03:01:57.067Z,1.00
2019-01-27T03:04:23.484Z,1.00
2019-01-27T03:06:51.997Z,0.87
2019-01-27T03:09:19.331Z,0.73
2019-01-27T03:11:48.441Z,1.00
2019-01-27T03:14:15.772Z,0.87
2019-01-27T03:16:42.381Z,0.90
2019-01-27T03:19:08.825Z,0.90
2019-01-27T03:21:35.420Z,0.90
2019-01-27T03:24:02.053Z,0.90
2019-01-27T03:26:28.706Z,1.00
2019-01-27T03:28:55.097Z,1.00
2019-01-27T03:31:21.513Z,1.00
2019-01-27T03:33:47.992Z,0.97
2019-01-27T03:36:14.314Z,0.90
2019-01-27T03:38:40.922Z,1.00
2019-01-27T03:41:07.667Z,1.20
2019-01-27T03:43:34.275Z,1.30
2019-01-27T03:46:00.971Z,1.17
2019-01-27T03:48:27.461Z,1.50
2019-01-27T03:50:54.088Z,1.20
2019-01-27T03:53:20.678Z,1.10
2019-01-27T03:55:47.177Z,1.37
2019-01-27T03:58:13.688Z,1.10
2019-01-27T04:00:40.313Z,1.00
2019-01-27T04:03:06.595Z,1.00
2019-01-27T04:05:33.199Z,0.97
2019-01-27T04:07:59.603Z,0.90
2019-01-27T04:10:27.910Z,1.13
2019-01-27T04:12:54.730Z,0.90
2019-01-27T04:15:21.677Z,0.77
2019-01-27T04:17:48.305Z,1.00
2019-01-27T04:20:20.557Z,0.90
2019-01-27T04:22:47.261Z,0.80
2019-01-27T04:25:14.351Z,0.93
2019-01-27T04:27:40.850Z,0.90
2019-01-27T04:30:22.372Z,0.80
2019-01-27T04:32:49.123Z,0.70
2019-01-27T04:35:15.716Z,0.90
2019-01-27T04:37:42.104Z,0.70
2019-01-27T04:40:19.206Z,0.80
2019-01-27T04:42:45.806Z,1.00
2019-01-27T04:45:15.926Z,0.80
2019-01-27T04:47:42.231Z,1.00
2019-01-27T04:50:12.454Z,0.90
2019-01-27T04:52:39.321Z,0.80
2019-01-27T04:55:10.716Z,1.00
2019-01-27T04:57:37.306Z,0.80
2019-01-27T05:00:09.326Z,0.80
2019-01-27T05:02:37.627Z,0.80
2019-01-27T05:05:09.433Z,0.73
2019-01-27T05:07:35.712Z,0.70
2019-01-27T05:10:07.318Z,0.97
2019-01-27T05:12:33.953Z,0.77
2019-01-27T05:15:00.495Z,0.70
2019-01-27T05:17:26.855Z,1.00
2019-01-27T05:19:53.173Z,0.97
2019-01-27T05:22:19.572Z,0.70
2019-01-27T05:24:46.189Z,0.60
2019-01-27T05:27:12.710Z,0.80
2019-01-27T05:29:39.204Z,0.47
2019-01-27T05:32:05.737Z,0.80
2019-01-27T05:34:32.146Z,0.60
2019-01-27T05:36:58.683Z,0.67
2019-01-27T05:39:25.263Z,0.70
2019-01-27T05:41:51.847Z,0.60
2019-01-27T05:44:18.228Z,0.73
2019-01-27T05:46:44.873Z,0.67
2019-01-27T05:49:11.378Z,0.67
2019-01-27T05:51:37.793Z,0.70
2019-01-27T05:54:04.497Z,0.60
2019-01-27T05:56:31.122Z,0.73
2019-01-27T05:58:57.491Z,0.80
2019-01-27T06:01:23.999Z,0.70
2019-01-27T06:03:50.625Z,0.70
2019-01-27T06:06:17.146Z,0.70
2019-01-27T06:08:43.511Z,0.70
2019-01-27T06:11:10.018Z,0.60
2019-01-27T06:13:36.601Z,0.77
2019-01-27T06:16:03.493Z,0.70
2019-01-27T06:18:29.872Z,0.70
2019-01-27T06:20:56.373Z,0.77
2019-01-27T06:23:22.812Z,0.70
2019-01-27T06:25:49.389Z,0.70
2019-01-27T06:28:16.009Z,0.60
2019-01-27T06:30:42.394Z,0.70
2019-01-27T06:33:10.733Z,0.60
2019-01-27T06:35:38.029Z,0.60
2019-01-27T06:38:04.781Z,0.67
2019-01-27T06:40:31.285Z,0.63
2019-01-27T06:42:57.797Z,0.57
2019-01-27T06:45:24.413Z,0.40
2019-01-27T06:47:50.896Z,0.60
2019-01-27T06:50:17.739Z,0.63
2019-01-27T06:52:44.347Z,0.40
2019-01-27T06:55:15.414Z,0.60
2019-01-27T06:57:41.907Z,0.50
2019-01-27T07:00:32.545Z,0.50
2019-01-27T07:03:00.974Z,0.57
2019-01-27T07:05:38.582Z,0.60
2019-01-27T07:08:09.628Z,0.70
2019-01-27T07:10:54.517Z,0.77
2019-01-27T07:13:22.904Z,2.50
2019-01-27T07:15:51.247Z,0.83
2019-01-27T07:18:25.731Z,0.90
2019-01-27T07:20:54.170Z,0.97
2019-01-27T07:23:22.558Z,0.60
2019-01-27T07:25:59.885Z,0.90
2019-01-27T07:28:45.076Z,0.90
2019-01-27T07:31:31.799Z,0.80
2019-01-27T07:34:06.393Z,0.83
2019-01-27T07:36:34.840Z,1.00
2019-01-27T07:39:03.223Z,1.30
2019-01-27T07:41:37.830Z,1.03
2019-01-27T07:44:22.943Z,1.00
2019-01-27T07:46:51.286Z,1.03
2019-01-27T07:49:22.779Z,0.90
2019-01-27T07:51:51.233Z,0.90
2019-01-27T07:54:22.285Z,1.03
2019-01-27T07:56:59.475Z,1.00
2019-01-27T07:59:27.764Z,0.70
2019-01-27T08:01:56.102Z,0.85
2019-01-27T08:04:24.309Z,0.90
2019-01-27T08:06:52.764Z,0.83
2019-01-27T08:09:24.042Z,0.90
2019-01-27T08:11:52.490Z,1.00
2019-01-27T08:14:24.173Z,1.07
2019-01-27T08:16:52.705Z,0.93
2019-01-27T08:19:21.153Z,1.00
2019-01-27T08:21:50.226Z,1.10
2019-01-27T08:24:27.358Z,1.60
2019-01-27T08:27:07.892Z,0.93
2019-01-27T08:29:54.561Z,0.87
2019-01-27T08:32:38.234Z,1.10
2019-01-27T08:35:12.125Z,1.10
2019-01-27T08:37:43.265Z,1.30
2019-01-27T08:40:18.675Z,1.00
2019-01-27T08:42:55.798Z,1.00
2019-01-27T08:45:27.189Z,1.10
2019-01-27T08:47:53.793Z,1.20
2019-01-27T08:50:20.416Z,1.00
2019-01-27T08:52:46.964Z,1.40
2019-01-27T08:55:13.723Z,1.40
2019-01-27T08:57:40.430Z,1.13
2019-01-27T09:00:15.107Z,1.10
2019-01-27T09:02:46.409Z,1.40
2019-01-27T09:05:15.393Z,1.23
2019-01-27T09:07:56.015Z,1.20
2019-01-27T09:10:27.398Z,1.20
2019-01-27T09:12:55.910Z,1.50
2019-01-27T09:15:24.402Z,1.40
2019-01-27T09:17:55.927Z,1.10
2019-01-27T09:20:33.320Z,1.43
2019-01-27T09:23:04.636Z,1.30
2019-01-27T09:25:33.194Z,1.23
2019-01-27T09:28:01.779Z,1.50
2019-01-27T09:30:33.121Z,1.47
2019-01-27T09:33:04.447Z,1.30
2019-01-27T09:35:51.315Z,1.50
2019-01-27T09:38:25.686Z,1.90
2019-01-27T09:40:54.352Z,1.50
2019-01-27T09:43:22.787Z,1.60
2019-01-27T09:46:05.378Z,1.70
2019-01-27T09:48:30.114Z,1.37
2019-01-27T09:50:58.659Z,1.60
2019-01-27T09:53:27.224Z,1.33
2019-01-27T09:55:55.712Z,1.53
2019-01-27T09:58:27.078Z,1.63
2019-01-27T10:00:55.613Z,1.40
2019-01-27T10:03:30.257Z,2.20
2019-01-27T10:05:58.606Z,1.57
2019-01-27T10:08:41.934Z,1.50
2019-01-27T10:11:12.160Z,1.50
2019-01-27T10:13:43.585Z,2.30
2019-01-27T10:16:12.173Z,1.60
2019-01-27T10:18:43.398Z,1.60
2019-01-27T10:21:14.851Z,1.67
2019-01-27T10:23:43.210Z,1.60
2019-01-27T10:26:11.647Z,1.70
2019-01-27T10:28:42.706Z,1.67
2019-01-27T10:31:16.784Z,1.60
2019-01-27T10:33:45.496Z,1.60
2019-01-27T10:36:32.359Z,1.80
2019-01-27T10:39:03.473Z,2.00
2019-01-27T10:41:34.577Z,1.77
2019-01-27T10:44:03.202Z,1.67
2019-01-27T10:46:48.298Z,1.90
2019-01-27T10:49:31.787Z,1.77
2019-01-27T10:52:12.584Z,2.00
2019-01-27T10:54:53.194Z,2.00
2019-01-27T10:57:31.034Z,1.93
2019-01-27T11:00:05.563Z,2.43
2019-01-27T11:02:37.221Z,2.10
2019-01-27T11:05:16.121Z,1.90
2019-01-27T11:07:50.680Z,1.67
2019-01-27T11:10:34.758Z,2.20
2019-01-27T11:13:11.964Z,1.70
2019-01-27T11:15:43.629Z,1.40
2019-01-27T11:18:14.978Z,1.80
2019-01-27T11:20:43.448Z,1.87
2019-01-27T11:23:21.209Z,1.63
2019-01-27T11:26:00.731Z,2.07
2019-01-27T11:28:26.131Z,1.67
2019-01-27T11:31:11.614Z,1.67
2019-01-27T11:33:40.199Z,1.50
2019-01-27T11:36:08.693Z,1.50
2019-01-27T11:38:55.194Z,1.67
2019-01-27T11:41:26.515Z,2.13
2019-01-27T11:43:57.620Z,1.90
2019-01-27T11:46:26.133Z,1.70
2019-01-27T11:49:00.734Z,1.77
2019-01-27T11:51:29.175Z,1.80
2019-01-27T11:53:55.850Z,1.83
2019-01-27T11:56:22.676Z,2.23
2019-01-27T11:58:49.256Z,2.00
2019-01-27T12:01:15.889Z,1.80
2019-01-27T12:03:42.486Z,2.00
2019-01-27T12:06:09.096Z,1.87
2019-01-27T12:08:35.672Z,1.90
2019-01-27T12:11:02.295Z,2.13
2019-01-27T12:13:29.140Z,1.80
2019-01-27T12:15:55.681Z,2.20
2019-01-27T12:18:22.463Z,2.10
2019-01-27T12:20:49.230Z,1.70
2019-01-27T12:23:15.935Z,2.10
2019-01-27T12:25:42.767Z,1.93
2019-01-27T12:28:09.518Z,2.10
2019-01-27T12:30:36.230Z,2.10
2019-01-27T12:33:03.053Z,2.00
2019-01-27T12:35:29.750Z,2.50
2019-01-27T12:37:56.388Z,2.07
2019-01-27T12:40:24.024Z,2.30
2019-01-27T12:42:50.780Z,2.13
2019-01-27T12:45:17.518Z,2.43
2019-01-27T12:47:44.273Z,2.20
2019-01-27T12:50:17.089Z,2.23
2019-01-27T12:52:45.363Z,1.77
2019-01-27T12:55:12.988Z,1.60
2019-01-27T12:57:40.297Z,1.50
2019-01-27T13:00:17.910Z,1.50
2019-01-27T13:02:44.652Z,1.40
2019-01-27T13:05:12.021Z,1.20
2019-01-27T13:07:38.885Z,1.20
2019-01-27T13:10:13.216Z,0.90
2019-01-27T13:12:39.935Z,1.83
2019-01-27T13:15:14.192Z,1.40
2019-01-27T13:17:40.996Z,1.10
2019-01-27T13:20:10.610Z,1.30
2019-01-27T13:22:37.438Z,1.20
2019-01-27T13:25:09.540Z,1.50
2019-01-27T13:27:36.351Z,1.80
2019-01-27T13:30:08.553Z,1.30
2019-01-27T13:32:35.367Z,1.47
2019-01-27T13:35:02.392Z,1.87
2019-01-27T13:37:29.322Z,1.80
2019-01-27T13:39:55.927Z,1.77
2019-01-27T13:42:22.519Z,1.87
2019-01-27T13:44:48.956Z,2.00
2019-01-27T13:47:15.731Z,2.50
2019-01-27T13:49:42.415Z,2.83
2019-01-27T13:52:08.989Z,2.77
2019-01-27T13:54:35.572Z,2.80
2019-01-27T13:57:02.126Z,2.90
2019-01-27T13:59:28.684Z,2.73
2019-01-27T14:01:55.276Z,3.07
2019-01-27T14:04:21.966Z,3.53
2019-01-27T14:06:48.613Z,4.17
2019-01-27T14:09:15.451Z,3.87
2019-01-27T14:11:41.975Z,3.77
2019-01-27T14:14:08.745Z,4.13
2019-01-27T14:16:35.948Z,3.47
2019-01-27T14:19:02.704Z,3.73
2019-01-27T14:21:29.446Z,4.03
2019-01-27T14:23:56.270Z,3.93
2019-01-27T14:26:22.865Z,4.50
2019-01-27T14:28:49.464Z,4.63
2019-01-27T14:31:16.258Z,4.50
2019-01-27T14:33:42.971Z,4.37
2019-01-27T14:36:09.651Z,4.47
2019-01-27T14:38:36.286Z,4.80
2019-01-27T14:41:03.537Z,7.13
2019-01-27T14:43:32.025Z,4.80
2019-01-27T14:45:58.500Z,4.83
2019-01-27T14:48:25.291Z,4.70
2019-01-27T14:50:51.983Z,4.60
2019-01-27T14:53:18.682Z,5.10
2019-01-27T14:55:45.539Z,4.63
2019-01-27T14:58:12.215Z,4.70
2019-01-27T15:00:42.005Z,4.20
2019-01-27T15:03:09.001Z,4.40
2019-01-27T15:05:35.983Z,4.83
2019-01-27T15:08:03.640Z,4.63
2019-01-27T15:10:30.385Z,4.17
2019-01-27T15:12:57.449Z,4.23
2019-01-27T15:15:24.404Z,4.53
2019-01-27T15:17:51.180Z,4.07
2019-01-27T15:20:33.515Z,4.40
2019-01-27T15:23:00.274Z,4.43
2019-01-27T15:25:27.012Z,4.30
2019-01-27T15:27:53.848Z,4.57
2019-01-27T15:30:25.491Z,4.80
2019-01-27T15:32:52.378Z,5.57
2019-01-27T15:35:19.025Z,4.63
2019-01-27T15:37:45.691Z,5.10
2019-01-27T15:40:14.671Z,5.97
2019-01-27T15:42:43.540Z,5.80
2019-01-27T15:45:23.558Z,3.20
2019-01-27T15:47:51.386Z,3.33
2019-01-27T15:50:22.098Z,3.03
2019-01-27T15:52:48.797Z,3.20
2019-01-27T15:55:17.859Z,3.07
2019-01-27T15:57:44.899Z,2.40
2019-01-27T16:00:25.122Z,2.80
2019-01-27T16:02:52.364Z,2.23
2019-01-27T16:05:21.617Z,5.87
2019-01-27T16:07:49.133Z,2.23
2019-01-27T16:10:19.900Z,2.13
2019-01-27T16:12:46.884Z,2.10
2019-01-27T16:15:18.325Z,1.60
2019-01-27T16:17:45.154Z,1.30
2019-01-27T16:20:15.871Z,1.50
2019-01-27T16:22:44.617Z,1.67
2019-01-27T16:25:11.439Z,1.60
2019-01-27T16:27:38.271Z,1.90
2019-01-27T16:30:36.168Z,2.13
2019-01-27T16:33:04.835Z,2.43
2019-01-27T16:35:31.938Z,3.10
2019-01-27T16:37:58.720Z,2.87
2019-01-27T16:40:25.834Z,2.30
2019-01-27T16:42:54.413Z,2.67
2019-01-27T16:45:21.201Z,3.13
2019-01-27T16:47:47.969Z,3.07
2019-01-27T16:50:16.095Z,2.93
2019-01-27T16:52:43.105Z,2.87
2019-01-27T16:55:14.784Z,3.40
2019-01-27T16:57:41.426Z,3.33
2019-01-27T17:00:16.130Z,2.90
2019-01-27T17:02:42.866Z,2.93
2019-01-27T17:05:13.746Z,3.23
2019-01-27T17:07:40.309Z,4.13
2019-01-27T17:10:18.382Z,4.40
2019-01-27T17:12:45.109Z,4.03
2019-01-27T17:15:12.697Z,4.60
2019-01-27T17:17:39.317Z,4.27
2019-01-27T17:20:25.897Z,3.87
2019-01-27T17:22:52.270Z,3.93
2019-01-27T17:25:21.245Z,4.10
2019-01-27T17:27:48.326Z,4.60
2019-01-27T17:30:22.800Z,5.00
2019-01-27T17:32:50.156Z,5.57
2019-01-27T17:35:17.767Z,5.17
2019-01-27T17:37:44.752Z,6.73
2019-01-27T17:40:16.518Z,6.33
2019-01-27T17:42:43.985Z,7.70
2019-01-27T17:45:22.950Z,6.67
2019-01-27T17:47:49.655Z,6.03
2019-01-27T17:50:18.700Z,6.90
2019-01-27T17:52:45.633Z,5.97
2019-01-27T17:55:44.269Z,6.13
2019-01-27T17:58:35.642Z,6.07
2019-01-27T18:01:08.470Z,6.10
2019-01-27T18:03:39.575Z,6.00
2019-01-27T18:06:17.459Z,6.57
2019-01-27T18:09:04.107Z,6.20
2019-01-27T18:11:32.880Z,6.40
2019-01-27T18:14:01.563Z,6.50
2019-01-27T18:16:28.119Z,6.53
2019-01-27T18:18:54.974Z,6.07
2019-01-27T18:21:21.765Z,5.40
2019-01-27T18:23:48.647Z,5.00
2019-01-27T18:26:17.312Z,5.40
2019-01-27T18:28:44.269Z,5.60
2019-01-27T18:31:11.267Z,5.30
2019-01-27T18:33:38.132Z,5.87
2019-01-27T18:36:05.183Z,5.90
2019-01-27T18:38:31.958Z,6.40
2019-01-27T18:40:58.732Z,6.90
2019-01-27T18:43:25.639Z,6.80
2019-01-27T18:45:54.297Z,6.97
2019-01-27T18:48:21.080Z,5.90
2019-01-27T18:50:48.220Z,4.73
2019-01-27T18:53:33.522Z,4.53
2019-01-27T18:56:02.559Z,4.97
2019-01-27T18:58:31.119Z,4.57
2019-01-27T19:01:11.374Z,4.50
2019-01-27T19:03:42.778Z,4.37
2019-01-27T19:06:11.514Z,4.07
2019-01-27T19:08:40.145Z,4.10
2019-01-27T19:11:09.047Z,4.77
2019-01-27T19:13:46.590Z,4.57
2019-01-27T19:16:17.678Z,4.60
2019-01-27T19:18:58.292Z,4.30
2019-01-27T19:21:26.926Z,4.30
2019-01-27T19:24:01.109Z,5.73
2019-01-27T19:26:29.886Z,5.07
2019-01-27T19:29:01.338Z,5.53
2019-01-27T19:31:29.940Z,5.70
2019-01-27T19:34:10.624Z,5.93
2019-01-27T19:36:55.966Z,7.10
2019-01-27T19:39:27.312Z,6.73
2019-01-27T19:42:04.797Z,7.30
2019-01-27T19:44:33.334Z,7.93
2019-01-27T19:47:01.860Z,7.13
2019-01-27T19:49:30.312Z,7.77
2019-01-27T19:52:07.987Z,8.20
2019-01-27T19:54:51.545Z,8.80
2019-01-27T19:57:20.059Z,8.27
2019-01-27T19:59:48.676Z,8.57
2019-01-27T20:02:33.587Z,8.00
2019-01-27T20:05:02.204Z,8.37
2019-01-27T20:07:45.920Z,7.23
2019-01-27T20:10:31.590Z,8.30
2019-01-27T20:13:08.611Z,7.40
2019-01-27T20:15:52.611Z,6.53
2019-01-27T20:18:21.091Z,5.47
2019-01-27T20:20:49.763Z,5.80
2019-01-27T20:23:21.127Z,5.70
2019-01-27T20:26:04.896Z,5.40
2019-01-27T20:28:45.523Z,5.20
2019-01-27T20:31:30.754Z,5.87
2019-01-27T20:33:59.393Z,6.23
2019-01-27T20:36:27.996Z,6.00
2019-01-27T20:38:56.599Z,7.03
2019-01-27T20:41:25.215Z,7.53
2019-01-27T20:43:56.616Z,7.57
2019-01-27T20:46:31.268Z,9.10
2019-01-27T20:49:08.654Z,9.50
2019-01-27T20:51:37.181Z,9.33
2019-01-27T20:54:24.147Z,9.43
2019-01-27T20:56:58.355Z,9.90
2019-01-27T20:59:43.179Z,10.43
2019-01-27T21:02:11.754Z,11.28
2019-01-27T21:04:56.777Z,9.80
2019-01-27T21:07:28.151Z,9.37
2019-01-27T21:09:56.758Z,17.00
2019-01-27T21:12:28.283Z,10.50
2019-01-27T21:14:56.714Z,9.50
2019-01-27T21:17:34.029Z,10.07
2019-01-27T21:20:00.830Z,9.50
2019-01-27T21:22:27.531Z,9.80
2019-01-27T21:24:54.040Z,9.20
2019-01-27T21:27:20.665Z,9.60
2019-01-27T21:29:47.114Z,9.30
2019-01-27T21:32:13.956Z,9.27
2019-01-27T21:34:40.488Z,9.00
2019-01-27T21:37:07.201Z,9.03
2019-01-27T21:39:33.827Z,9.03
2019-01-27T21:42:00.519Z,8.43
2019-01-27T21:44:27.356Z,9.77
2019-01-27T21:46:54.090Z,8.57
2019-01-27T21:49:20.715Z,8.80
2019-01-27T21:51:47.392Z,7.73
2019-01-27T21:54:14.146Z,7.97
2019-01-27T21:56:40.676Z,7.83
2019-01-27T21:59:07.282Z,7.80
2019-01-27T22:01:33.970Z,7.93
2019-01-27T22:04:00.517Z,7.60
2019-01-27T22:06:27.095Z,7.37
2019-01-27T22:08:53.536Z,7.17
2019-01-27T22:11:20.075Z,6.67
2019-01-27T22:13:46.738Z,7.10
2019-01-27T22:16:13.334Z,6.80
2019-01-27T22:18:39.875Z,6.17
2019-01-27T22:21:06.395Z,6.90
2019-01-27T22:23:32.906Z,6.83
2019-01-27T22:25:59.680Z,6.70
2019-01-27T22:28:26.073Z,6.93
2019-01-27T22:30:52.739Z,6.90
2019-01-27T22:33:19.485Z,7.57
2019-01-27T22:35:45.968Z,7.33
2019-01-27T22:38:12.739Z,7.27
2019-01-27T22:40:39.496Z,7.27
2019-01-27T22:43:06.154Z,8.10
2019-01-27T22:45:32.737Z,8.07
2019-01-27T22:47:59.565Z,7.77
2019-01-27T22:50:26.770Z,8.60
2019-01-27T22:52:53.614Z,8.10
2019-01-27T22:55:20.406Z,8.60
2019-01-27T22:57:47.071Z,8.27
2019-01-27T23:00:35.878Z,8.30
2019-01-27T23:03:03.814Z,8.20
2019-01-27T23:05:30.419Z,7.10
2019-01-27T23:07:56.966Z,7.17
2019-01-27T23:10:23.573Z,7.17
2019-01-27T23:12:50.100Z,7.80
2019-01-27T23:15:17.005Z,7.77
2019-01-27T23:17:43.402Z,8.00
2019-01-27T23:20:10.007Z,7.77
2019-01-27T23:22:36.576Z,8.40
2019-01-27T23:25:04.525Z,7.10
2019-01-27T23:27:31.168Z,8.10
2019-01-27T23:29:57.475Z,7.33
2019-01-27T23:32:24.022Z,7.67
2019-01-27T23:34:50.610Z,7.20
2019-01-27T23:37:17.269Z,7.50
2019-01-27T23:39:43.915Z,6.73
2019-01-27T23:42:10.495Z,6.60
2019-01-27T23:44:37.123Z,5.97
2019-01-27T23:47:03.760Z,6.00
2019-01-27T23:49:30.303Z,5.80
2019-01-27T23:51:56.926Z,5.93
2019-01-27T23:54:23.355Z,5.73
2019-01-27T23:56:49.973Z,5.37
2019-01-27T23:59:16.532Z,5.40
